Time;durP1;ratioP1;P1;durP2;ratioP2;P2;SDS_P1;SDS_P2;PMS_P1;PMS_P2;Temp;Humidity;BMP_temperature;BMP_pressure;BME280_temperature;BME280_humidity;BME280_pressure;Samples;Min_cycle;Max_cycle;Signal;HPM_P1;HPM_P2
2023/01/25 00:01:36;;;;;;;30.02;14.13;;;0.80;99.90;;;;;;5032098;28;20049;-78
2023/01/25 00:04:22;;;;;;;32.55;15.13;;;0.80;99.90;;;;;;5023303;28;20049;-78
2023/01/25 00:07:08;;;;;;;30.90;14.48;;;0.80;99.90;;;;;;5034303;28;20053;-78
2023/01/25 00:09:54;;;;;;;29.02;15.55;;;0.80;99.90;;;;;;5050070;28;20048;-78
2023/01/25 00:12:40;;;;;;;32.80;15.07;;;0.80;99.90;;;;;;5050275;28;20045;-78
2023/01/25 00:15:26;;;;;;;30.42;16.25;;;0.90;99.90;;;;;;5036859;28;20048;-79
2023/01/25 00:18:13;;;;;;;30.58;15.40;;;0.90;99.90;;;;;;5033675;28;20107;-78
2023/01/25 00:20:59;;;;;;;28.08;15.20;;;0.90;99.90;;;;;;5049489;28;20080;-79
2023/01/25 00:23:45;;;;;;;32.70;16.25;;;0.90;99.90;;;;;;5050754;28;20049;-77
2023/01/25 00:26:33;;;;;;;31.23;14.90;;;0.90;99.90;;;;;;5050951;28;20130;-79
2023/01/25 00:29:19;;;;;;;34.70;16.17;;;0.90;99.90;;;;;;5050471;28;20173;-78
2023/01/25 00:32:05;;;;;;;30.73;15.15;;;0.80;99.90;;;;;;5033122;28;20107;-82
2023/01/25 00:34:51;;;;;;;30.13;15.63;;;0.90;99.90;;;;;;5033437;28;20080;-78
2023/01/25 00:37:43;;;;;;;30.48;15.15;;;0.90;99.90;;;;;;5050848;28;20056;-80
2023/01/25 00:40:29;;;;;;;29.50;14.55;;;0.90;99.90;;;;;;5049329;28;20114;-79
2023/01/25 00:43:15;;;;;;;29.33;15.85;;;0.90;99.90;;;;;;5049381;28;20122;-84
2023/01/25 00:46:01;;;;;;;37.92;16.45;;;0.80;99.90;;;;;;5030610;28;20051;-79
2023/01/25 00:48:47;;;;;;;30.25;16.23;;;0.90;99.90;;;;;;5049446;28;20045;-78
2023/01/25 00:51:34;;;;;;;35.33;16.58;;;0.90;99.90;;;;;;5050208;28;20234;-80
2023/01/25 00:54:20;;;;;;;34.22;17.50;;;0.90;99.90;;;;;;5049329;28;20489;-80
2023/01/25 00:57:06;;;;;;;36.25;16.90;;;0.90;99.90;;;;;;5052744;28;20111;-77
2023/01/25 00:59:53;;;;;;;35.15;16.73;;;0.80;99.90;;;;;;5036031;28;20048;-79
2023/01/25 01:02:39;;;;;;;33.15;17.35;;;0.80;99.90;;;;;;5050788;28;20053;-79
2023/01/25 01:05:27;;;;;;;35.47;17.65;;;0.80;99.90;;;;;;5032609;28;20049;-77
2023/01/25 01:08:14;;;;;;;31.88;16.27;;;0.80;99.90;;;;;;5049444;28;20048;-79
2023/01/25 01:11:01;;;;;;;34.80;17.40;;;0.80;99.90;;;;;;5050562;28;20135;-78
2023/01/25 01:13:48;;;;;;;39.45;17.70;;;0.80;99.90;;;;;;5051021;28;20049;-79
2023/01/25 01:16:34;;;;;;;34.58;16.80;;;0.80;99.90;;;;;;5051845;28;20079;-80
2023/01/25 01:19:20;;;;;;;39.80;18.35;;;0.70;99.90;;;;;;5049674;28;20551;-79
2023/01/25 01:22:07;;;;;;;36.40;17.85;;;0.80;99.90;;;;;;5053546;28;20102;-82
2023/01/25 01:24:53;;;;;;;35.47;16.88;;;0.70;99.90;;;;;;5036447;28;20137;-80
2023/01/25 01:27:39;;;;;;;35.47;16.52;;;0.70;99.90;;;;;;5052926;28;20104;-82
2023/01/25 01:30:25;;;;;;;37.85;18.77;;;0.70;99.90;;;;;;5034470;28;20579;-81
2023/01/25 01:33:11;;;;;;;34.50;17.25;;;0.70;99.90;;;;;;5052938;28;20041;-82
2023/01/25 01:35:57;;;;;;;35.30;18.23;;;0.70;99.90;;;;;;5055052;28;20056;-79
2023/01/25 01:38:44;;;;;;;37.35;18.25;;;0.70;99.90;;;;;;5055119;28;20049;-79
2023/01/25 01:41:30;;;;;;;44.85;18.98;;;0.70;99.90;;;;;;5053544;28;20053;-81
2023/01/25 01:44:19;;;;;;;39.03;19.35;;;0.70;99.90;;;;;;5053177;28;20080;-82
2023/01/25 01:47:13;;;;;;;43.40;21.33;;;0.70;99.90;;;;;;5054633;28;20383;-82
2023/01/25 01:50:05;;;;;;;42.58;18.95;;;0.70;99.90;;;;;;5054566;28;20149;-79
2023/01/25 01:52:51;;;;;;;37.95;18.02;;;0.70;99.90;;;;;;5052348;28;20135;-78
2023/01/25 01:55:38;;;;;;;35.47;17.50;;;0.70;99.90;;;;;;5055377;28;20048;-82
2023/01/25 01:58:25;;;;;;;35.17;16.88;;;0.60;99.90;;;;;;5053933;28;20045;-82
2023/01/25 02:01:11;;;;;;;38.85;18.38;;;0.60;99.90;;;;;;5053466;28;20045;-82
2023/01/25 02:03:58;;;;;;;40.28;18.25;;;0.60;99.90;;;;;;5053806;28;20098;-83
2023/01/25 02:07:06;;;;;;;37.67;18.50;;;0.60;99.90;;;;;;5413875;22;20060;-81
2023/01/25 02:09:52;;;;;;;39.40;17.90;;;0.60;99.90;;;;;;5072224;28;20063;-80
2023/01/25 02:12:40;;;;;;;38.22;18.33;;;0.50;99.90;;;;;;5057320;28;20056;-83
2023/01/25 02:15:36;;;;;;;40.55;18.58;;;0.50;99.90;;;;;;5072649;28;20051;-82
2023/01/25 02:18:24;;;;;;;43.58;19.55;;;0.60;99.90;;;;;;5072805;28;20086;-82
2023/01/25 02:21:10;;;;;;;44.55;21.52;;;0.60;99.90;;;;;;5072585;28;20499;-79
2023/01/25 02:24:07;;;;;;;37.15;18.95;;;0.60;99.90;;;;;;5072451;28;20064;-82
2023/01/25 02:26:53;;;;;;;40.22;19.05;;;0.50;99.90;;;;;;5072033;28;20432;-81
2023/01/25 02:29:40;;;;;;;41.88;18.88;;;0.50;99.90;;;;;;5072773;28;20048;-79
2023/01/25 02:32:26;;;;;;;48.13;22.42;;;0.50;99.90;;;;;;5073032;28;20048;-82
2023/01/25 02:35:34;;;;;;;43.78;19.38;;;0.50;99.90;;;;;;5057784;28;20515;-84
2023/01/25 02:38:20;;;;;;;41.15;18.45;;;0.50;99.90;;;;;;5071806;28;20048;-80
2023/01/25 02:41:12;;;;;;;45.10;20.77;;;0.40;99.90;;;;;;5070981;28;20049;-79
2023/01/25 02:44:08;;;;;;;47.58;22.52;;;0.40;99.90;;;;;;5072150;28;20056;-80
2023/01/25 02:46:55;;;;;;;47.15;21.52;;;0.50;99.90;;;;;;5071777;28;20501;-81
2023/01/25 02:49:41;;;;;;;51.00;23.63;;;0.40;99.90;;;;;;5071598;28;20041;-80
2023/01/25 02:52:27;;;;;;;45.15;22.33;;;0.40;99.90;;;;;;5075063;28;20060;-78
2023/01/25 02:55:13;;;;;;;51.53;22.45;;;0.40;99.90;;;;;;5072977;28;20091;-78
2023/01/25 02:57:59;;;;;;;45.10;21.25;;;0.40;99.90;;;;;;5072154;28;20058;-78
2023/01/25 03:00:45;;;;;;;50.58;23.00;;;0.40;99.90;;;;;;5071889;28;20074;-80
2023/01/25 03:03:31;;;;;;;46.67;21.90;;;0.50;99.90;;;;;;5071940;28;20106;-80
2023/01/25 03:06:17;;;;;;;48.42;22.30;;;0.50;99.90;;;;;;5061799;28;20072;-80
2023/01/25 03:09:05;;;;;;;44.15;20.75;;;0.50;99.90;;;;;;5053374;28;20048;-79
2023/01/25 03:11:51;;;;;;;46.78;22.13;;;0.40;99.90;;;;;;5052726;28;20055;-82
2023/01/25 03:14:37;;;;;;;49.75;22.08;;;0.40;99.90;;;;;;5052090;28;20045;-80
2023/01/25 03:17:23;;;;;;;43.47;20.35;;;0.40;99.90;;;;;;5052615;28;20060;-80
2023/01/25 03:20:10;;;;;;;54.92;23.25;;;0.40;99.90;;;;;;5051912;28;20408;-82
2023/01/25 03:22:56;;;;;;;45.03;19.85;;;0.40;99.90;;;;;;5051016;28;20412;-84
2023/01/25 03:25:42;;;;;;;46.55;21.02;;;0.30;99.90;;;;;;5033696;28;20145;-82
2023/01/25 03:28:28;;;;;;;39.45;17.42;;;0.30;99.90;;;;;;5053274;28;20045;-79
2023/01/25 03:31:16;;;;;;;37.33;18.48;;;0.20;99.90;;;;;;5052016;28;20127;-78
2023/01/25 03:34:02;;;;;;;42.70;19.55;;;0.20;99.90;;;;;;5050646;28;20044;-78
2023/01/25 03:36:48;;;;;;;43.10;18.45;;;0.20;99.90;;;;;;5051735;28;20045;-78
2023/01/25 03:39:34;;;;;;;47.45;20.33;;;0.20;99.90;;;;;;5032936;28;20061;-79
2023/01/25 03:42:21;;;;;;;49.83;20.23;;;0.10;99.90;;;;;;5050307;28;20165;-78
2023/01/25 03:45:08;;;;;;;43.83;20.50;;;0.10;99.90;;;;;;5033399;28;20056;-79
2023/01/25 03:47:54;;;;;;;46.67;20.13;;;0.10;99.90;;;;;;5052882;28;20048;-79
2023/01/25 03:50:39;;;;;;;55.03;20.98;;;0.10;99.90;;;;;;5053454;28;20052;-79
2023/01/25 03:53:30;;;;;;;44.00;20.55;;;0.00;99.90;;;;;;5050723;28;20083;-78
2023/01/25 03:56:19;;;;;;;47.88;20.92;;;0.10;99.90;;;;;;5050227;28;20468;-79
2023/01/25 03:59:05;;;;;;;47.83;19.35;;;0.10;99.90;;;;;;5050250;28;20044;-77
2023/01/25 04:01:51;;;;;;;59.42;22.52;;;0.10;99.90;;;;;;5051779;28;20447;-77
2023/01/25 04:04:37;;;;;;;49.35;20.02;;;0.10;99.90;;;;;;5036143;28;20139;-82
2023/01/25 04:07:23;;;;;;;48.58;20.42;;;0.00;99.90;;;;;;5055097;28;20055;-78
2023/01/25 04:10:10;;;;;;;49.67;20.73;;;0.00;99.90;;;;;;5049852;28;20685;-79
2023/01/25 04:12:56;;;;;;;50.90;19.58;;;-0.10;99.90;;;;;;5033239;28;20080;-81
2023/01/25 04:15:42;;;;;;;46.65;20.85;;;-0.10;99.90;;;;;;5050027;28;20465;-83
2023/01/25 04:18:29;;;;;;;49.33;18.95;;;-0.20;99.90;;;;;;5050569;28;20140;-80
2023/01/25 04:21:15;;;;;;;48.60;19.75;;;-0.20;99.90;;;;;;5030935;28;20053;-77
2023/01/25 04:24:01;;;;;;;65.05;23.48;;;-0.20;99.90;;;;;;5050547;28;20068;-79
2023/01/25 04:26:47;;;;;;;53.85;21.27;;;-0.20;99.90;;;;;;5051845;28;20057;-79
2023/01/25 04:29:34;;;;;;;52.55;21.65;;;-0.20;99.90;;;;;;5050880;28;20048;-79
2023/01/25 04:32:19;;;;;;;58.65;24.45;;;-0.20;99.90;;;;;;5032613;28;20061;-77
2023/01/25 04:35:06;;;;;;;67.30;24.00;;;-0.20;99.90;;;;;;5050646;28;20053;-78
2023/01/25 04:37:54;;;;;;;74.28;26.00;;;-0.20;99.90;;;;;;5050047;28;20045;-79
2023/01/25 04:40:42;;;;;;;59.35;24.73;;;-0.20;99.90;;;;;;5032991;28;20577;-80
2023/01/25 04:43:28;;;;;;;63.47;23.75;;;-0.20;99.90;;;;;;5038227;28;20747;-79
2023/01/25 04:46:14;;;;;;;66.63;25.73;;;-0.20;99.90;;;;;;5049970;28;20103;-81
2023/01/25 04:49:00;;;;;;;68.85;25.42;;;-0.20;99.90;;;;;;5034881;28;20135;-79
2023/01/25 04:51:46;;;;;;;77.80;27.23;;;-0.20;99.90;;;;;;5050620;28;20053;-83
2023/01/25 04:54:32;;;;;;;72.78;27.55;;;-0.20;99.90;;;;;;5049997;28;20049;-83
2023/01/25 04:57:18;;;;;;;77.95;30.45;;;-0.20;99.90;;;;;;5056725;28;20049;-78
2023/01/25 05:00:05;;;;;;;81.13;27.23;;;-0.10;99.90;;;;;;5059288;28;20052;-79
2023/01/25 05:02:51;;;;;;;76.68;28.75;;;-0.20;99.90;;;;;;5039206;28;20559;-78
2023/01/25 05:05:37;;;;;;;86.80;29.95;;;-0.20;99.90;;;;;;5041707;28;20048;-83
2023/01/25 05:08:25;;;;;;;86.15;29.80;;;-0.10;99.90;;;;;;5057721;28;20489;-78
2023/01/25 05:11:11;;;;;;;80.38;30.50;;;-0.10;99.90;;;;;;5057291;28;20081;-78
2023/01/25 05:13:57;;;;;;;79.07;27.55;;;-0.10;99.90;;;;;;5051693;28;20443;-78
2023/01/25 05:16:43;;;;;;;81.43;30.42;;;-0.10;99.90;;;;;;5039998;28;20051;-80
2023/01/25 05:19:29;;;;;;;82.55;31.05;;;-0.10;99.90;;;;;;5056895;28;20053;-78
2023/01/25 05:22:19;;;;;;;88.38;30.95;;;-0.10;99.90;;;;;;5057619;28;20056;-79
2023/01/25 05:26:59;;;;;;;97.18;32.72;;;-0.10;99.90;;;;;;5042254;28;20056;-78
2023/01/25 05:28:12;;;;;;;90.25;30.95;;;-0.10;99.90;;;;;;5056929;28;20519;-83
2023/01/25 05:30:58;;;;;;;79.80;27.58;;;-0.10;99.90;;;;;;5044907;28;20423;-77
2023/01/25 05:33:44;;;;;;;76.43;29.40;;;-0.10;99.90;;;;;;5025329;28;20619;-79
2023/01/25 05:36:30;;;;;;;87.07;29.65;;;-0.10;99.90;;;;;;5056954;28;20053;-81
2023/01/25 05:39:16;;;;;;;92.45;29.33;;;-0.10;99.90;;;;;;5058349;28;20095;-81
2023/01/25 05:42:03;;;;;;;69.53;24.80;;;-0.20;99.90;;;;;;5062049;28;20049;-82
2023/01/25 05:44:49;;;;;;;75.53;26.02;;;-0.30;99.90;;;;;;5066307;28;20131;-83
2023/01/25 05:47:35;;;;;;;73.30;28.85;;;-0.20;99.90;;;;;;5051208;28;20084;-83
2023/01/25 05:50:22;;;;;;;75.68;29.00;;;-0.30;99.90;;;;;;5061165;28;20060;-82
2023/01/25 05:53:08;;;;;;;74.72;27.45;;;-0.20;99.90;;;;;;5058653;28;20572;-79
2023/01/25 05:55:55;;;;;;;81.28;29.85;;;-0.30;99.90;;;;;;5066718;28;20041;-81
2023/01/25 05:58:41;;;;;;;86.30;31.05;;;-0.20;99.90;;;;;;5062713;28;20048;-78
2023/01/25 06:01:27;;;;;;;79.80;29.63;;;-0.20;99.90;;;;;;5058576;28;20057;-78
2023/01/25 06:04:14;;;;;;;88.00;30.48;;;-0.20;99.90;;;;;;5059163;28;20047;-81
2023/01/25 06:07:00;;;;;;;97.05;32.60;;;-0.20;99.90;;;;;;5054154;28;20056;-80
2023/01/25 06:09:46;;;;;;;93.32;32.17;;;-0.20;99.90;;;;;;5052629;28;20045;-81
2023/01/25 06:12:32;;;;;;;85.50;30.25;;;-0.20;99.90;;;;;;5035756;28;20515;-82
2023/01/25 06:15:18;;;;;;;81.80;27.75;;;-0.20;99.90;;;;;;5038289;28;20071;-83
2023/01/25 06:18:05;;;;;;;83.95;31.40;;;-0.30;99.90;;;;;;5053063;28;20385;-82
2023/01/25 06:20:51;;;;;;;82.93;31.30;;;-0.30;99.90;;;;;;5052795;28;20045;-83
2023/01/25 06:23:37;;;;;;;97.78;31.45;;;-0.30;99.90;;;;;;5039284;28;20049;-80
2023/01/25 06:26:23;;;;;;;91.53;30.30;;;-0.30;99.90;;;;;;5054533;28;20084;-83
2023/01/25 06:29:09;;;;;;;85.38;30.30;;;-0.30;99.90;;;;;;5052324;28;20044;-82
2023/01/25 06:31:55;;;;;;;95.95;33.65;;;-0.30;99.90;;;;;;5020630;28;20532;-83
2023/01/25 06:34:41;;;;;;;96.38;34.85;;;-0.30;99.90;;;;;;5052838;28;20041;-78
2023/01/25 06:37:27;;;;;;;105.88;36.08;;;-0.30;99.90;;;;;;5035223;28;20734;-82
2023/01/25 06:40:14;;;;;;;100.78;36.28;;;-0.20;99.90;;;;;;5055693;28;20044;-80
2023/01/25 06:43:07;;;;;;;100.30;33.28;;;-0.20;99.90;;;;;;5052231;28;20544;-81
2023/01/25 06:46:00;;;;;;;102.90;34.40;;;-0.20;99.90;;;;;;5050653;28;20041;-84
2023/01/25 06:48:46;;;;;;;97.82;34.33;;;-0.20;99.90;;;;;;5052945;28;20538;-80
2023/01/25 06:51:32;;;;;;;88.57;32.85;;;-0.20;99.90;;;;;;5034215;28;20210;-82
2023/01/25 06:54:18;;;;;;;97.90;32.53;;;-0.30;99.90;;;;;;5051829;28;20051;-81
2023/01/25 06:57:04;;;;;;;125.90;39.42;;;-0.20;99.90;;;;;;5050466;28;20065;-78
2023/01/25 06:59:51;;;;;;;111.10;35.72;;;-0.20;99.90;;;;;;5053035;28;20049;-82
2023/01/25 07:02:37;;;;;;;97.55;33.17;;;-0.20;99.90;;;;;;5056171;28;20060;-80
2023/01/25 07:05:23;;;;;;;101.15;36.33;;;-0.20;99.90;;;;;;5034486;28;20087;-80
2023/01/25 07:08:09;;;;;;;84.45;29.63;;;-0.10;99.90;;;;;;5033728;28;20115;-82
2023/01/25 07:10:57;;;;;;;82.55;27.67;;;-0.10;99.90;;;;;;5052011;28;20056;-82
2023/01/25 07:13:45;;;;;;;82.05;29.00;;;-0.10;99.90;;;;;;5044445;28;20099;-81
2023/01/25 07:16:35;;;;;;;89.75;31.23;;;-0.10;99.90;;;;;;5051037;28;20048;-81
2023/01/25 07:19:21;;;;;;;90.38;30.02;;;-0.10;99.90;;;;;;5051829;28;20408;-80
2023/01/25 07:22:07;;;;;;;87.20;29.55;;;-0.10;99.90;;;;;;5051751;28;20045;-81
2023/01/25 07:24:56;;;;;;;81.00;27.98;;;-0.10;99.90;;;;;;5054824;28;20053;-80
2023/01/25 07:27:42;;;;;;;85.30;30.80;;;-0.10;99.90;;;;;;5051893;28;20052;-85
2023/01/25 07:30:28;;;;;;;80.53;29.60;;;-0.10;99.90;;;;;;5053433;28;20049;-84
2023/01/25 07:33:14;;;;;;;80.40;28.70;;;0.00;99.90;;;;;;5052273;28;20053;-84
2023/01/25 07:36:02;;;;;;;84.50;30.42;;;-0.10;99.90;;;;;;5020097;28;20052;-82
2023/01/25 07:38:52;;;;;;;82.40;31.20;;;-0.10;99.90;;;;;;5051787;28;20135;-85
2023/01/25 07:41:39;;;;;;;82.88;32.15;;;-0.10;99.90;;;;;;5032318;28;20107;-79
2023/01/25 07:44:25;;;;;;;74.78;29.98;;;-0.10;99.90;;;;;;5052349;28;20149;-79
2023/01/25 07:47:11;;;;;;;76.55;30.98;;;-0.10;99.90;;;;;;5051967;28;20125;-82
2023/01/25 07:49:57;;;;;;;78.03;30.27;;;-0.10;99.90;;;;;;5051343;28;20106;-81
2023/01/25 07:52:43;;;;;;;80.15;30.77;;;-0.10;99.90;;;;;;5032803;28;20080;-81
2023/01/25 07:55:30;;;;;;;69.47;28.33;;;-0.10;99.90;;;;;;5033406;28;20409;-82
2023/01/25 07:58:16;;;;;;;73.60;28.95;;;-0.10;99.90;;;;;;5035414;28;20056;-80
2023/01/25 08:01:07;;;;;;;75.13;28.35;;;-0.10;99.90;;;;;;5051408;28;20057;-79
2023/01/25 08:03:55;;;;;;;75.60;28.70;;;-0.10;99.90;;;;;;5038475;28;20102;-84
2023/01/25 08:06:41;;;;;;;74.32;28.55;;;-0.10;99.90;;;;;;5050113;28;20060;-82
2023/01/25 08:09:27;;;;;;;73.05;28.65;;;0.00;99.90;;;;;;5031996;28;20712;-82
2023/01/25 08:12:13;;;;;;;79.40;29.17;;;0.00;99.90;;;;;;5034992;28;20052;-80
2023/01/25 08:15:01;;;;;;;74.85;29.10;;;0.00;99.90;;;;;;5051683;28;20198;-80
2023/01/25 08:17:47;;;;;;;83.53;30.52;;;0.00;99.90;;;;;;5049727;28;20052;-78
2023/01/25 08:20:33;;;;;;;77.63;28.50;;;0.00;99.90;;;;;;5033645;28;20045;-77
2023/01/25 08:23:19;;;;;;;79.25;30.58;;;0.00;99.90;;;;;;5051763;28;20053;-80
2023/01/25 08:26:07;;;;;;;81.57;33.05;;;0.10;99.90;;;;;;5037234;28;20041;-78
2023/01/25 08:28:54;;;;;;;80.63;30.58;;;0.10;99.90;;;;;;5035398;28;20049;-78
2023/01/25 08:31:44;;;;;;;74.65;30.40;;;0.10;99.90;;;;;;5050028;28;20056;-79
2023/01/25 08:34:31;;;;;;;81.40;32.30;;;0.10;99.90;;;;;;5017197;28;20091;-80
2023/01/25 08:37:17;;;;;;;71.32;29.63;;;0.10;99.90;;;;;;5035556;28;20107;-80
2023/01/25 08:40:03;;;;;;;80.97;30.77;;;0.10;99.90;;;;;;5032849;28;20234;-77
2023/01/25 08:42:49;;;;;;;76.63;29.23;;;0.10;99.90;;;;;;5049423;28;20053;-76
2023/01/25 08:45:35;;;;;;;84.43;32.35;;;0.10;99.90;;;;;;5050334;28;20378;-78
2023/01/25 08:48:22;;;;;;;82.63;29.83;;;0.10;99.90;;;;;;5032327;28;20044;-79
2023/01/25 08:51:12;;;;;;;74.40;30.30;;;0.20;99.90;;;;;;5049741;28;20056;-77
2023/01/25 08:54:06;;;;;;;76.72;30.40;;;0.20;99.90;;;;;;5051365;28;20068;-83
2023/01/25 08:56:52;;;;;;;85.13;32.25;;;0.20;99.90;;;;;;5050481;28;20129;-79
2023/01/25 08:59:38;;;;;;;81.55;31.30;;;0.20;99.90;;;;;;5052350;28;20140;-78
2023/01/25 09:02:25;;;;;;;76.47;29.45;;;0.20;99.90;;;;;;5049733;28;20139;-79
2023/01/25 09:05:11;;;;;;;85.70;30.20;;;0.30;99.90;;;;;;5050504;28;20056;-79
2023/01/25 09:07:57;;;;;;;80.75;29.90;;;0.30;99.90;;;;;;5020077;28;20528;-80
2023/01/25 09:10:43;;;;;;;75.57;29.88;;;0.30;99.90;;;;;;5003744;28;20057;-79
2023/01/25 09:13:30;;;;;;;75.32;29.92;;;0.30;99.90;;;;;;5030998;28;20114;-80
2023/01/25 09:16:27;;;;;;;80.63;31.25;;;0.30;99.90;;;;;;5030300;28;20041;-77
2023/01/25 09:19:13;;;;;;;75.72;28.83;;;0.30;99.90;;;;;;5033241;28;20478;-83
2023/01/25 09:21:59;;;;;;;72.65;28.30;;;0.30;99.90;;;;;;5030297;28;20092;-78
2023/01/25 09:24:50;;;;;;;76.03;28.73;;;0.30;99.90;;;;;;5030339;28;20049;-78
2023/01/25 09:27:37;;;;;;;77.30;29.10;;;0.30;99.90;;;;;;5016032;28;20099;-79
2023/01/25 09:30:23;;;;;;;86.53;30.17;;;0.40;99.90;;;;;;4986089;28;20512;-79
2023/01/25 09:33:09;;;;;;;76.07;26.98;;;0.40;99.90;;;;;;5030250;28;20052;-79
2023/01/25 09:35:56;;;;;;;77.35;30.15;;;0.40;99.90;;;;;;5030244;28;20639;-76
2023/01/25 09:38:42;;;;;;;88.00;32.80;;;0.40;99.90;;;;;;5016593;28;20414;-76
2023/01/25 09:41:51;;;;;;;78.30;29.63;;;0.40;99.90;;;;;;5030963;28;20058;-81
2023/01/25 09:44:55;;;;;;;80.57;30.20;;;0.50;99.90;;;;;;5034761;28;20520;-78
2023/01/25 09:47:58;;;;;;;92.85;32.20;;;0.40;99.90;;;;;;5034291;28;20050;-83
2023/01/25 09:51:23;;;;;;;93.47;33.67;;;0.50;99.90;;;;;;5033923;28;20104;-79
2023/01/25 09:54:11;;;;;;;88.75;32.13;;;0.50;99.90;;;;;;5033306;28;20128;-78
2023/01/25 09:56:58;;;;;;;84.97;31.38;;;0.50;99.90;;;;;;5033435;28;20513;-79
2023/01/25 09:59:48;;;;;;;81.78;29.30;;;0.60;99.90;;;;;;5034678;28;20527;-78
2023/01/25 10:02:45;;;;;;;89.55;31.92;;;0.60;99.90;;;;;;5017361;28;20195;-79
2023/01/25 10:05:40;;;;;;;75.93;28.70;;;0.60;99.90;;;;;;5036023;28;20115;-81
2023/01/25 10:08:43;;;;;;;81.47;28.95;;;0.60;99.90;;;;;;5052599;28;20103;-83
2023/01/25 10:11:31;;;;;;;86.78;28.63;;;0.60;99.90;;;;;;5053249;28;20084;-83
2023/01/25 10:14:18;;;;;;;85.63;28.85;;;0.70;99.90;;;;;;5035194;28;20489;-79
2023/01/25 10:17:28;;;;;;;84.50;30.23;;;0.70;99.90;;;;;;5052616;28;20055;-79
2023/01/25 10:20:27;;;;;;;76.97;26.85;;;0.70;99.90;;;;;;5053723;28;20059;-79
2023/01/25 10:23:34;;;;;;;73.13;26.33;;;0.70;99.90;;;;;;5053571;28;20049;-77
2023/01/25 10:26:25;;;;;;;77.28;26.45;;;0.80;99.90;;;;;;5036707;28;20049;-80
2023/01/25 10:29:20;;;;;;;71.55;24.83;;;0.80;99.90;;;;;;5052475;28;20493;-81
2023/01/25 10:32:27;;;;;;;73.97;24.10;;;0.80;99.90;;;;;;5052585;28;20048;-80
2023/01/25 10:35:20;;;;;;;79.32;28.17;;;0.80;99.90;;;;;;5034365;28;20060;-82
2023/01/25 10:38:45;;;;;;;90.22;29.60;;;0.80;99.90;;;;;;5051295;28;20053;-81
2023/01/25 10:41:39;;;;;;;87.13;31.35;;;0.80;99.90;;;;;;4952947;28;20614;-83
2023/01/25 10:44:27;;;;;;;82.40;27.95;;;0.80;99.90;;;;;;4952887;28;20110;-80
2023/01/25 10:47:27;;;;;;;82.20;28.92;;;0.80;99.90;;;;;;5034406;28;20053;-83
2023/01/25 10:50:43;;;;;;;84.18;29.13;;;0.90;99.90;;;;;;5051835;28;20147;-80
2023/01/25 10:53:34;;;;;;;95.43;30.13;;;0.90;99.90;;;;;;5051213;28;20041;-81
2023/01/25 10:56:27;;;;;;;86.63;28.88;;;0.90;99.90;;;;;;5052602;28;20057;-79
2023/01/25 10:59:21;;;;;;;93.68;31.95;;;1.00;99.90;;;;;;5054275;28;20045;-79
2023/01/25 11:02:40;;;;;;;98.68;34.95;;;1.00;99.90;;;;;;5038801;28;20052;-81
2023/01/25 11:05:37;;;;;;;88.13;29.38;;;1.00;99.90;;;;;;5012546;28;20619;-78
2023/01/25 11:08:30;;;;;;;96.15;30.08;;;1.00;99.90;;;;;;5051457;28;20549;-78
2023/01/25 11:11:53;;;;;;;96.82;31.90;;;1.00;99.90;;;;;;5051446;28;20096;-79
2023/01/25 11:14:39;;;;;;;99.47;31.00;;;1.00;99.90;;;;;;5052205;28;20045;-82
2023/01/25 11:17:30;;;;;;;101.70;31.10;;;1.00;99.90;;;;;;5052371;28;20105;-80
2023/01/25 11:20:20;;;;;;;94.20;29.58;;;1.00;99.90;;;;;;5051429;28;20521;-79
2023/01/25 11:23:25;;;;;;;89.28;27.95;;;1.00;99.90;;;;;;5051987;28;20134;-78
2023/01/25 11:26:13;;;;;;;88.57;26.98;;;1.10;99.90;;;;;;5033592;28;20167;-80
2023/01/25 11:29:17;;;;;;;92.53;30.77;;;1.10;99.90;;;;;;5052673;28;20063;-78
2023/01/25 11:32:15;;;;;;;90.57;29.55;;;1.10;99.90;;;;;;5054324;28;20095;-79
2023/01/25 11:35:01;;;;;;;94.20;29.35;;;1.20;99.90;;;;;;5020664;28;20061;-79
2023/01/25 11:38:02;;;;;;;87.38;31.38;;;1.20;99.90;;;;;;5051728;28;20075;-79
2023/01/25 11:40:54;;;;;;;94.90;30.73;;;1.20;99.90;;;;;;5050392;28;20094;-80
2023/01/25 11:44:01;;;;;;;100.00;29.42;;;1.20;99.90;;;;;;5051747;28;20762;-82
2023/01/25 11:47:07;;;;;;;106.55;31.08;;;1.30;99.90;;;;;;5050309;28;20056;-79
2023/01/25 11:50:18;;;;;;;88.75;30.02;;;1.30;99.90;;;;;;5057457;28;20049;-82
2023/01/25 11:53:44;;;;;;;93.43;31.83;;;1.30;99.90;;;;;;5051312;28;20052;-83
2023/01/25 11:56:53;;;;;;;83.10;27.90;;;1.30;99.90;;;;;;5051156;28;20045;-83
2023/01/25 11:59:54;;;;;;;86.60;29.70;;;1.40;99.90;;;;;;5049572;28;20123;-82
2023/01/25 12:03:16;;;;;;;89.60;28.85;;;1.50;99.90;;;;;;5051615;28;20155;-84
2023/01/25 12:06:12;;;;;;;92.53;28.92;;;1.50;99.90;;;;;;5050625;28;20142;-79
2023/01/25 12:09:01;;;;;;;93.95;31.40;;;1.50;99.90;;;;;;5053152;28;20131;-80
2023/01/25 12:11:50;;;;;;;91.05;28.95;;;1.50;99.90;;;;;;5050803;28;20106;-80
2023/01/25 12:15:00;;;;;;;91.93;32.30;;;1.50;99.90;;;;;;5051102;28;20056;-81
2023/01/25 12:18:16;;;;;;;100.22;30.08;;;1.60;99.90;;;;;;5032732;28;20056;-81
2023/01/25 12:21:05;;;;;;;88.27;29.50;;;1.60;99.90;;;;;;5017528;28;20057;-78
2023/01/25 12:24:09;;;;;;;106.25;34.22;;;1.60;99.90;;;;;;5035727;28;20045;-78
2023/01/25 12:27:14;;;;;;;91.45;30.73;;;1.60;99.90;;;;;;5052094;28;20045;-78
2023/01/25 12:30:22;;;;;;;94.85;30.15;;;1.70;99.90;;;;;;5053317;28;20112;-78
2023/01/25 12:33:18;;;;;;;96.75;33.30;;;1.70;99.90;;;;;;5049524;28;20051;-83
2023/01/25 12:36:19;;;;;;;87.65;30.20;;;1.80;99.90;;;;;;5050468;28;20133;-77
2023/01/25 12:39:12;;;;;;;91.38;30.23;;;1.80;99.90;;;;;;5051031;28;20059;-79
2023/01/25 12:42:33;;;;;;;92.55;30.67;;;1.80;99.90;;;;;;5050694;28;20060;-84
2023/01/25 12:45:48;;;;;;;92.40;31.58;;;1.80;99.90;;;;;;5047519;28;20077;-78
2023/01/25 12:48:40;;;;;;;82.00;29.05;;;1.90;99.90;;;;;;5049636;28;20053;-80
2023/01/25 12:51:33;;;;;;;90.22;31.00;;;1.90;99.90;;;;;;5050105;28;20136;-76
2023/01/25 12:54:27;;;;;;;92.45;30.83;;;1.90;99.90;;;;;;5055949;28;20057;-79
2023/01/25 12:57:19;;;;;;;90.15;33.88;;;1.90;99.90;;;;;;5050016;28;20485;-78
2023/01/25 13:00:22;;;;;;;92.45;30.00;;;1.90;99.90;;;;;;5031453;28;20056;-79
2023/01/25 13:03:24;;;;;;;86.28;30.20;;;1.90;99.90;;;;;;5032357;28;20057;-80
2023/01/25 13:06:29;;;;;;;98.65;32.35;;;1.90;99.90;;;;;;5049507;28;20057;-80
2023/01/25 13:09:25;;;;;;;92.63;31.30;;;1.90;99.90;;;;;;5050244;28;20049;-79
2023/01/25 13:12:11;;;;;;;96.93;33.20;;;1.90;99.90;;;;;;5050741;28;20056;-79
2023/01/25 13:14:57;;;;;;;88.53;31.70;;;1.90;99.90;;;;;;5054584;28;20049;-81
2023/01/25 13:17:44;;;;;;;93.55;29.92;;;2.00;99.90;;;;;;5052775;28;20489;-81
2023/01/25 13:20:52;;;;;;;95.32;32.53;;;2.00;99.90;;;;;;5053188;28;20134;-82
2023/01/25 13:23:45;;;;;;;95.07;31.25;;;2.00;99.90;;;;;;5054323;28;20076;-84
2023/01/25 13:26:45;;;;;;;82.03;30.70;;;2.00;99.90;;;;;;5052537;28;20055;-81
2023/01/25 13:29:34;;;;;;;97.75;32.83;;;2.00;99.90;;;;;;5053357;28;20057;-80
2023/01/25 13:32:23;;;;;;;98.60;32.63;;;2.00;99.90;;;;;;5053653;28;20497;-81
2023/01/25 13:35:27;;;;;;;102.70;34.60;;;2.10;99.90;;;;;;5058648;28;20057;-79
2023/01/25 13:38:32;;;;;;;93.03;32.45;;;2.10;99.90;;;;;;5052532;28;20493;-78
2023/01/25 13:41:18;;;;;;;97.82;32.20;;;2.10;99.90;;;;;;5035432;28;20052;-82
2023/01/25 13:44:18;;;;;;;91.22;31.88;;;2.10;99.90;;;;;;5053520;28;20096;-79
2023/01/25 13:47:09;;;;;;;96.35;32.35;;;2.10;99.90;;;;;;5053530;28;20134;-77
2023/01/25 13:50:07;;;;;;;89.80;35.30;;;2.10;99.90;;;;;;5053075;28;20134;-79
2023/01/25 13:52:58;;;;;;;80.30;27.48;;;2.10;99.90;;;;;;5035923;28;20401;-80
2023/01/25 13:55:55;;;;;;;92.85;31.63;;;2.10;99.90;;;;;;5038126;28;20064;-80
2023/01/25 13:58:46;;;;;;;81.20;29.35;;;2.10;99.90;;;;;;5036479;28;20048;-79
2023/01/25 14:01:34;;;;;;;91.40;30.30;;;2.20;99.90;;;;;;5039442;28;20464;-79
2023/01/25 14:04:21;;;;;;;77.70;28.73;;;2.30;99.90;;;;;;5053507;28;20144;-79
2023/01/25 14:07:15;;;;;;;86.45;33.55;;;2.20;99.90;;;;;;5052714;28;20140;-79
2023/01/25 14:10:07;;;;;;;76.93;29.47;;;2.30;99.90;;;;;;5052604;28;20138;-82
2023/01/25 14:12:59;;;;;;;84.85;31.83;;;2.30;99.90;;;;;;5052798;28;20284;-84
2023/01/25 14:15:53;;;;;;;85.90;30.98;;;2.30;99.90;;;;;;5053737;28;20127;-82
2023/01/25 14:18:41;;;;;;;82.50;32.00;;;2.30;99.90;;;;;;5051741;28;20139;-84
2023/01/25 14:21:27;;;;;;;79.03;28.70;;;2.30;99.90;;;;;;5038668;28;20048;-78
2023/01/25 14:24:17;;;;;;;79.60;29.08;;;2.30;99.90;;;;;;5056715;28;20230;-81
2023/01/25 14:27:05;;;;;;;94.35;30.13;;;2.30;99.90;;;;;;5053681;28;20623;-81
2023/01/25 14:29:51;;;;;;;76.50;27.23;;;2.30;99.90;;;;;;5036137;28;20045;-79
2023/01/25 14:32:40;;;;;;;81.47;30.08;;;2.40;99.90;;;;;;5052755;28;20586;-83